Time;durP1;ratioP1;P1;durP2;ratioP2;P2;SDS_P1;SDS_P2;PMS_P1;PMS_P2;Temp;Humidity;BMP_temperature;BMP_pressure;BME280_temperature;BME280_humidity;BME280_pressure;Samples;Min_cycle;Max_cycle;Signal;HPM_P1;HPM_P2
2023/07/20 00:01:32;;;;;;;3.28;2.50;;;15.40;99.90;;;;;;7372952;19;20640;-58
2023/07/20 00:03:58;;;;;;;3.22;2.55;;;15.40;99.90;;;;;;7373585;19;20673;-57
2023/07/20 00:06:27;;;;;;;3.20;2.53;;;15.40;99.90;;;;;;7372815;19;20028;-58
2023/07/20 00:08:55;;;;;;;3.03;2.63;;;15.30;99.90;;;;;;7373840;19;20110;-58
2023/07/20 00:11:27;;;;;;;3.03;2.70;;;15.30;99.90;;;;;;7372087;19;20274;-58
2023/07/20 00:13:53;;;;;;;4.20;2.80;;;15.30;99.90;;;;;;7375547;19;20405;-58
2023/07/20 00:16:20;;;;;;;3.28;2.70;;;15.30;99.90;;;;;;7375650;19;20349;-63
2023/07/20 00:18:46;;;;;;;4.22;2.63;;;15.20;99.90;;;;;;7374159;19;20302;-63
2023/07/20 00:21:12;;;;;;;3.40;2.53;;;15.30;99.90;;;;;;7375090;19;20023;-64
2023/07/20 00:23:38;;;;;;;3.75;2.97;;;15.20;99.90;;;;;;7371604;19;20026;-64
2023/07/20 00:26:04;;;;;;;4.88;2.90;;;15.30;99.90;;;;;;7367746;19;20018;-63
2023/07/20 00:28:31;;;;;;;4.10;3.40;;;15.30;99.90;;;;;;7370922;19;20682;-63
2023/07/20 00:30:59;;;;;;;3.67;2.95;;;15.30;99.90;;;;;;7369975;19;20469;-63
2023/07/20 00:33:26;;;;;;;4.90;3.30;;;15.30;99.90;;;;;;7372262;19;20014;-63
2023/07/20 00:35:53;;;;;;;4.68;3.00;;;15.20;99.90;;;;;;7373804;19;20021;-63
2023/07/20 00:38:20;;;;;;;5.00;3.63;;;15.20;99.90;;;;;;7370640;19;20385;-63
2023/07/20 00:40:49;;;;;;;3.95;3.30;;;15.30;99.90;;;;;;7372875;19;20074;-64
2023/07/20 00:43:18;;;;;;;4.05;3.45;;;15.30;99.90;;;;;;7371940;19;20090;-63
2023/07/20 00:45:44;;;;;;;4.05;3.35;;;15.20;99.90;;;;;;7374025;19;20473;-63
2023/07/20 00:48:12;;;;;;;4.97;4.22;;;15.30;99.90;;;;;;7378184;19;20041;-63
2023/07/20 00:50:40;;;;;;;5.05;4.10;;;15.30;99.90;;;;;;7386923;19;20026;-63
2023/07/20 00:53:07;;;;;;;5.68;4.78;;;15.30;99.90;;;;;;7383595;19;20086;-63
2023/07/20 00:55:33;;;;;;;5.05;4.00;;;15.30;99.90;;;;;;7389343;19;20022;-63
2023/07/20 00:58:03;;;;;;;4.80;4.40;;;15.30;99.90;;;;;;7381784;19;20031;-63
2023/07/20 01:00:30;;;;;;;5.53;4.43;;;15.30;99.90;;;;;;7382771;19;20014;-63
2023/07/20 01:02:57;;;;;;;5.65;4.90;;;15.20;99.90;;;;;;7380329;19;20022;-63
2023/07/20 01:05:48;;;;;;;4.45;4.05;;;15.20;99.90;;;;;;7385375;19;20018;-58
2023/07/20 01:08:24;;;;;;;5.82;5.22;;;15.20;99.90;;;;;;7385161;19;20353;-58
2023/07/20 01:10:57;;;;;;;5.85;5.22;;;15.20;99.90;;;;;;7379403;19;20014;-58
2023/07/20 01:13:25;;;;;;;6.80;5.15;;;15.20;99.90;;;;;;7380360;19;20022;-58
2023/07/20 01:16:02;;;;;;;5.80;5.20;;;15.10;99.90;;;;;;7382181;19;20030;-58
2023/07/20 01:18:28;;;;;;;5.78;5.22;;;15.10;99.90;;;;;;7380576;19;20018;-58
2023/07/20 01:21:01;;;;;;;6.03;5.43;;;15.10;99.90;;;;;;7382916;19;20451;-58
2023/07/20 01:23:50;;;;;;;7.25;6.07;;;15.10;99.90;;;;;;7382765;19;20022;-63
2023/07/20 01:26:48;;;;;;;9.10;5.93;;;15.10;99.90;;;;;;7380263;19;20051;-64
2023/07/20 01:29:49;;;;;;;6.15;5.55;;;15.00;99.90;;;;;;7381095;19;20010;-63
2023/07/20 01:32:18;;;;;;;6.88;6.00;;;15.00;99.90;;;;;;7379129;19;20026;-63
2023/07/20 01:34:46;;;;;;;7.07;6.38;;;14.90;99.90;;;;;;7381202;19;20055;-63
2023/07/20 01:37:15;;;;;;;7.97;6.65;;;14.90;99.90;;;;;;7380901;19;20018;-64
2023/07/20 01:39:42;;;;;;;6.78;6.18;;;14.80;99.90;;;;;;7379915;19;20038;-63
2023/07/20 01:42:08;;;;;;;8.30;7.43;;;14.80;99.90;;;;;;7383914;19;20019;-63
2023/07/20 01:44:36;;;;;;;7.72;6.95;;;14.70;99.90;;;;;;7380340;19;20494;-63
2023/07/20 01:47:02;;;;;;;7.32;6.63;;;14.60;99.90;;;;;;7381188;19;20014;-63
2023/07/20 01:49:29;;;;;;;7.40;6.70;;;14.50;99.90;;;;;;7379641;19;20015;-63
2023/07/20 01:51:59;;;;;;;6.45;5.85;;;14.40;99.90;;;;;;7378096;19;20089;-63
2023/07/20 01:54:26;;;;;;;8.07;6.78;;;14.40;99.90;;;;;;7378786;19;20101;-63
2023/07/20 01:56:52;;;;;;;7.43;6.70;;;14.30;99.90;;;;;;7379229;19;20014;-63
2023/07/20 01:59:19;;;;;;;8.15;7.25;;;14.30;99.90;;;;;;7375245;19;20029;-63
2023/07/20 02:01:45;;;;;;;8.05;7.03;;;14.20;99.90;;;;;;7367402;19;20048;-63
2023/07/20 02:04:12;;;;;;;7.88;7.15;;;14.10;99.90;;;;;;7373238;19;20046;-63
2023/07/20 02:06:38;;;;;;;9.20;6.75;;;14.00;99.90;;;;;;7372275;19;20025;-63
2023/07/20 02:09:05;;;;;;;8.70;7.82;;;14.00;99.90;;;;;;7373278;19;20015;-63
2023/07/20 02:11:31;;;;;;;7.97;7.28;;;13.90;99.90;;;;;;7370883;19;20077;-63
2023/07/20 02:13:57;;;;;;;10.93;7.90;;;13.90;99.90;;;;;;7375792;19;20022;-63
2023/07/20 02:16:24;;;;;;;8.98;8.07;;;13.80;99.90;;;;;;7374426;19;20537;-63
2023/07/20 02:18:50;;;;;;;8.88;7.93;;;13.80;99.90;;;;;;7373791;19;20022;-64
2023/07/20 02:21:16;;;;;;;8.48;7.60;;;13.70;99.90;;;;;;7373705;19;20014;-64
2023/07/20 02:23:43;;;;;;;9.05;8.25;;;13.60;99.90;;;;;;7365076;19;20619;-63
2023/07/20 02:26:09;;;;;;;9.57;8.63;;;13.60;99.90;;;;;;7374453;19;20039;-64
2023/07/20 02:28:35;;;;;;;9.82;8.93;;;13.50;99.90;;;;;;7374600;19;20422;-63
2023/07/20 02:31:01;;;;;;;9.02;8.13;;;13.50;99.90;;;;;;7373413;19;20014;-63
2023/07/20 02:33:27;;;;;;;8.35;7.55;;;13.50;99.90;;;;;;7370855;19;20018;-63
2023/07/20 02:35:54;;;;;;;10.35;9.35;;;13.40;99.90;;;;;;7373279;19;20353;-63
2023/07/20 02:38:21;;;;;;;9.05;8.15;;;13.40;99.90;;;;;;7373378;19;20042;-58
2023/07/20 02:40:47;;;;;;;9.18;8.20;;;13.30;99.90;;;;;;7374518;19;20018;-58
2023/07/20 02:43:14;;;;;;;9.60;8.65;;;13.30;99.90;;;;;;7373949;19;20464;-58
2023/07/20 02:45:42;;;;;;;9.00;8.07;;;13.30;99.90;;;;;;7374503;19;20366;-59
2023/07/20 02:48:08;;;;;;;9.13;8.32;;;13.20;99.90;;;;;;7372820;19;20018;-58
2023/07/20 02:50:35;;;;;;;8.88;7.97;;;13.20;99.90;;;;;;7371007;19;20046;-58
2023/07/20 02:53:02;;;;;;;10.15;8.70;;;13.20;99.90;;;;;;7370082;19;20480;-58
2023/07/20 02:55:28;;;;;;;9.07;8.18;;;13.20;99.90;;;;;;7369203;19;20107;-58
2023/07/20 02:57:54;;;;;;;8.73;7.75;;;13.10;99.90;;;;;;7372755;19;20035;-58
2023/07/20 03:00:23;;;;;;;8.10;7.20;;;13.10;99.90;;;;;;7369697;19;20099;-58
2023/07/20 03:02:52;;;;;;;11.80;7.38;;;13.00;99.90;;;;;;7370920;19;20066;-63
2023/07/20 03:05:19;;;;;;;7.60;6.80;;;13.00;99.90;;;;;;7370331;19;20475;-64
2023/07/20 03:07:46;;;;;;;9.23;7.28;;;13.00;99.90;;;;;;7372444;19;20026;-63
2023/07/20 03:10:12;;;;;;;8.23;7.30;;;13.00;99.90;;;;;;7373385;19;20371;-63
2023/07/20 03:12:39;;;;;;;7.47;6.68;;;13.00;99.90;;;;;;7372002;19;20110;-63
2023/07/20 03:15:06;;;;;;;9.43;7.50;;;12.90;99.90;;;;;;7372681;19;20024;-63
2023/07/20 03:17:33;;;;;;;7.93;6.90;;;12.90;99.90;;;;;;7372365;19;20114;-64
2023/07/20 03:20:00;;;;;;;8.50;7.47;;;12.90;99.90;;;;;;7373003;19;20022;-64
2023/07/20 03:22:28;;;;;;;7.82;7.03;;;12.80;99.90;;;;;;7373777;19;20019;-58
2023/07/20 03:24:55;;;;;;;8.30;7.45;;;12.80;99.90;;;;;;7374817;19;20110;-59
2023/07/20 03:27:21;;;;;;;8.30;7.00;;;12.80;99.90;;;;;;7370342;19;20023;-57
2023/07/20 03:29:47;;;;;;;8.70;7.13;;;12.80;99.90;;;;;;7375518;19;20094;-57
2023/07/20 03:32:14;;;;;;;9.38;7.85;;;12.70;99.90;;;;;;7371573;19;20875;-57
2023/07/20 03:34:40;;;;;;;8.40;6.78;;;12.70;99.90;;;;;;7373326;19;20022;-57
2023/07/20 03:37:07;;;;;;;7.55;6.85;;;12.70;99.90;;;;;;7372229;19;20034;-57
2023/07/20 03:39:34;;;;;;;8.65;7.85;;;12.70;99.90;;;;;;7375267;19;20879;-58
2023/07/20 03:42:00;;;;;;;8.70;6.95;;;12.60;99.90;;;;;;7372243;19;20587;-63
2023/07/20 03:44:26;;;;;;;8.10;7.35;;;12.60;99.90;;;;;;7375670;19;20018;-63
2023/07/20 03:46:53;;;;;;;8.60;7.70;;;12.60;99.90;;;;;;7372358;19;20047;-64
2023/07/20 03:49:19;;;;;;;9.93;7.25;;;12.50;99.90;;;;;;7372356;19;20022;-64
2023/07/20 03:51:46;;;;;;;7.90;7.10;;;12.50;99.90;;;;;;7369147;19;20408;-64
2023/07/20 03:54:12;;;;;;;7.00;6.30;;;12.50;99.90;;;;;;7373310;19;20019;-64
2023/07/20 03:56:38;;;;;;;7.85;7.05;;;12.50;99.90;;;;;;7372990;19;20465;-64
2023/07/20 03:59:05;;;;;;;7.72;7.03;;;12.50;99.90;;;;;;7372788;19;20018;-63
2023/07/20 04:01:36;;;;;;;7.90;7.05;;;12.50;99.90;;;;;;7363432;19;20095;-64
2023/07/20 04:04:07;;;;;;;8.60;6.93;;;12.50;99.90;;;;;;7369380;19;20022;-64
2023/07/20 04:06:34;;;;;;;7.45;6.47;;;12.50;99.90;;;;;;7370628;19;20014;-64
2023/07/20 04:09:00;;;;;;;8.00;6.25;;;12.40;99.90;;;;;;7368705;19;20438;-64
2023/07/20 04:11:26;;;;;;;6.88;6.07;;;12.40;99.90;;;;;;7366821;19;21245;-64
2023/07/20 04:13:53;;;;;;;11.27;6.10;;;12.40;99.90;;;;;;7371039;19;20032;-64
2023/07/20 04:16:19;;;;;;;8.85;6.43;;;12.30;99.90;;;;;;7370318;19;20513;-64
2023/07/20 04:18:46;;;;;;;6.75;5.43;;;12.30;99.90;;;;;;7369642;19;20081;-64
2023/07/20 04:21:13;;;;;;;8.88;6.05;;;12.30;99.90;;;;;;7365352;19;20015;-64
2023/07/20 04:23:39;;;;;;;6.80;6.10;;;12.20;99.90;;;;;;7366407;19;20035;-64
2023/07/20 04:26:06;;;;;;;6.97;6.28;;;12.30;99.90;;;;;;7365049;19;20073;-64
2023/07/20 04:28:33;;;;;;;6.75;6.03;;;12.30;99.90;;;;;;7369981;19;20054;-65
2023/07/20 04:31:12;;;;;;;6.68;5.97;;;12.30;99.90;;;;;;7366026;19;20058;-64
2023/07/20 04:33:38;;;;;;;5.95;5.35;;;12.30;99.90;;;;;;7367677;19;20018;-64
2023/07/20 04:36:05;;;;;;;5.43;4.93;;;12.30;99.90;;;;;;7367473;19;20466;-65
2023/07/20 04:38:35;;;;;;;5.72;5.07;;;12.30;99.90;;;;;;7367801;19;20018;-65
2023/07/20 04:41:19;;;;;;;6.30;5.70;;;12.30;99.90;;;;;;7368259;19;20093;-65
2023/07/20 04:43:47;;;;;;;6.65;5.97;;;12.40;99.90;;;;;;7369933;19;20018;-65
2023/07/20 04:46:19;;;;;;;6.18;5.57;;;12.40;99.90;;;;;;7368144;19;20022;-64
2023/07/20 04:48:47;;;;;;;6.40;5.80;;;12.50;99.90;;;;;;7367455;19;20018;-65
2023/07/20 04:51:14;;;;;;;7.25;6.43;;;12.60;99.90;;;;;;7367352;19;20028;-64
2023/07/20 04:53:40;;;;;;;6.93;6.22;;;12.70;99.90;;;;;;7369576;19;20022;-65
2023/07/20 04:56:08;;;;;;;6.70;6.00;;;12.70;99.90;;;;;;7367068;19;20050;-65
2023/07/20 04:58:35;;;;;;;6.93;6.22;;;12.80;99.90;;;;;;7369242;19;20466;-64
2023/07/20 05:01:01;;;;;;;8.45;6.72;;;12.90;99.90;;;;;;7365948;19;20025;-64
2023/07/20 05:03:28;;;;;;;7.32;6.60;;;13.00;99.90;;;;;;7367338;19;20022;-65
2023/07/20 05:05:55;;;;;;;6.50;5.90;;;13.10;99.90;;;;;;7362798;19;20454;-65
2023/07/20 05:08:24;;;;;;;5.78;5.13;;;13.30;99.90;;;;;;7369068;19;20517;-65
2023/07/20 05:10:51;;;;;;;6.55;5.95;;;13.30;99.90;;;;;;7368041;19;20047;-58
2023/07/20 05:13:17;;;;;;;5.95;5.35;;;13.50;99.90;;;;;;7367442;19;20038;-58
2023/07/20 05:15:44;;;;;;;5.85;5.25;;;13.80;99.90;;;;;;7362774;19;20038;-58
2023/07/20 05:18:13;;;;;;;5.40;4.88;;;14.20;99.90;;;;;;7369849;19;20019;-57
2023/07/20 05:20:40;;;;;;;5.28;4.35;;;14.70;99.90;;;;;;7367304;19;20018;-59
2023/07/20 05:23:06;;;;;;;5.00;3.67;;;15.00;99.90;;;;;;7369195;19;20081;-65
2023/07/20 05:25:33;;;;;;;4.25;3.30;;;15.30;99.90;;;;;;7365723;19;20412;-65
2023/07/20 05:28:02;;;;;;;3.67;2.95;;;15.40;99.90;;;;;;7369778;19;20022;-65
2023/07/20 05:30:29;;;;;;;4.57;3.05;;;15.70;99.90;;;;;;7368556;19;20434;-59
2023/07/20 05:32:58;;;;;;;3.50;2.67;;;15.90;99.90;;;;;;7368457;19;20022;-59
2023/07/20 05:35:26;;;;;;;4.95;3.30;;;16.10;99.90;;;;;;7375413;19;20523;-59
2023/07/20 05:37:52;;;;;;;4.20;2.55;;;16.30;99.90;;;;;;7377599;19;20488;-60
2023/07/20 05:40:19;;;;;;;4.63;2.50;;;16.50;99.90;;;;;;7373943;19;20014;-60
2023/07/20 05:42:48;;;;;;;3.60;2.60;;;16.60;99.90;;;;;;7379260;19;20026;-60
2023/07/20 05:45:15;;;;;;;3.05;2.50;;;16.90;99.90;;;;;;7376649;19;20098;-61
2023/07/20 05:47:42;;;;;;;3.45;2.33;;;17.10;99.90;;;;;;7371162;19;20094;-60
2023/07/20 05:50:10;;;;;;;3.70;1.95;;;17.40;99.90;;;;;;7375737;19;20019;-60
2023/07/20 05:52:38;;;;;;;3.55;2.90;;;17.50;99.90;;;;;;7375092;19;20105;-60
2023/07/20 05:55:05;;;;;;;2.88;1.60;;;17.60;99.90;;;;;;7373160;19;20025;-60
2023/07/20 05:57:32;;;;;;;2.95;1.90;;;17.60;99.90;;;;;;7376018;19;20395;-60
2023/07/20 05:59:58;;;;;;;2.75;1.80;;;17.90;99.90;;;;;;7371993;19;20608;-60
2023/07/20 06:02:24;;;;;;;2.72;1.30;;;18.00;99.90;;;;;;7369410;19;20405;-65
2023/07/20 06:04:50;;;;;;;2.92;1.58;;;18.20;99.90;;;;;;7373136;19;20022;-65
2023/07/20 06:07:17;;;;;;;3.80;1.55;;;18.20;99.90;;;;;;7371365;19;20477;-65
2023/07/20 06:09:43;;;;;;;3.72;1.17;;;18.40;99.90;;;;;;7373212;19;20023;-65
2023/07/20 06:12:09;;;;;;;3.17;1.52;;;18.60;99.90;;;;;;7374497;19;20354;-65
2023/07/20 06:14:36;;;;;;;6.07;1.55;;;18.50;99.90;;;;;;7373311;19;20022;-65
2023/07/20 06:17:02;;;;;;;2.45;1.48;;;18.50;99.90;;;;;;7371881;19;21188;-65
2023/07/20 06:19:29;;;;;;;3.22;1.17;;;18.20;99.90;;;;;;7371568;19;20370;-64
2023/07/20 06:21:56;;;;;;;61.83;54.80;;;18.40;99.90;;;;;;7373648;19;20022;-65
2023/07/20 06:24:22;;;;;;;10.55;8.85;;;18.50;99.90;;;;;;7374661;19;20531;-61
2023/07/20 06:26:49;;;;;;;14.90;11.77;;;18.80;99.90;;;;;;7371636;19;20022;-61
2023/07/20 06:29:15;;;;;;;4.00;1.70;;;19.00;99.90;;;;;;7369704;19;20098;-61
2023/07/20 06:31:41;;;;;;;7.90;1.48;;;19.00;99.90;;;;;;7370107;19;20023;-61
2023/07/20 06:34:07;;;;;;;3.17;1.10;;;19.20;99.90;;;;;;7371579;19;20034;-61
2023/07/20 06:36:34;;;;;;;5.43;1.20;;;19.10;99.90;;;;;;7372944;19;20449;-61
2023/07/20 06:39:00;;;;;;;6.50;4.32;;;19.40;99.90;;;;;;7372224;19;20022;-61
2023/07/20 06:41:26;;;;;;;3.20;0.90;;;19.50;99.90;;;;;;7374830;19;20010;-61
2023/07/20 06:43:57;;;;;;;3.05;0.98;;;19.70;99.90;;;;;;7376647;19;20493;-61
2023/07/20 06:46:25;;;;;;;3.95;1.00;;;19.80;99.90;;;;;;7371170;19;20831;-61
2023/07/20 06:48:52;;;;;;;2.47;0.93;;;19.80;99.90;;;;;;7373483;19;20014;-61
2023/07/20 06:51:18;;;;;;;2.97;1.80;;;20.00;99.90;;;;;;7370791;19;20022;-61
2023/07/20 06:53:44;;;;;;;13.68;10.80;;;20.00;99.90;;;;;;7373442;19;20104;-65
2023/07/20 06:56:11;;;;;;;4.00;1.20;;;20.30;99.90;;;;;;7374749;19;20018;-60
2023/07/20 06:58:37;;;;;;;2.42;0.90;;;20.40;99.90;;;;;;7373663;19;20022;-59
2023/07/20 07:01:08;;;;;;;14.05;11.98;;;20.30;99.90;;;;;;7373837;19;20066;-60
2023/07/20 07:03:35;;;;;;;;;;;20.60;99.90;;;;;;7377635;19;20070;-60
2023/07/20 07:06:01;;;;;;;4.65;1.05;;;20.30;99.90;;;;;;7375634;19;19934;-60
2023/07/20 07:08:27;;;;;;;2.70;1.90;;;20.50;99.90;;;;;;7375079;19;20798;-59
2023/07/20 07:10:53;;;;;;;2.17;0.90;;;20.60;99.90;;;;;;7376977;19;20560;-60
2023/07/20 07:13:20;;;;;;;5.20;1.17;;;20.70;99.90;;;;;;7373990;19;20026;-60
2023/07/20 07:15:46;;;;;;;4.07;0.80;;;20.90;99.90;;;;;;7370129;19;20026;-59
2023/07/20 07:18:12;;;;;;;5.05;0.98;;;21.10;99.90;;;;;;7371939;19;20606;-61
2023/07/20 07:20:39;;;;;;;5.18;2.50;;;21.20;99.90;;;;;;7376169;19;20018;-63
2023/07/20 07:23:05;;;;;;;26.02;23.55;;;21.20;99.90;;;;;;7369816;19;20014;-62
2023/07/20 07:25:32;;;;;;;9.05;7.20;;;21.00;99.90;;;;;;7372007;19;20018;-61
2023/07/20 07:27:58;;;;;;;2.13;0.70;;;20.60;99.90;;;;;;7373631;19;20044;-60
2023/07/20 07:30:26;;;;;;;4.03;0.95;;;20.20;99.90;;;;;;7371399;19;20082;-61
2023/07/20 07:32:52;;;;;;;5.97;1.98;;;19.60;99.90;;;;;;7366798;19;20647;-60
2023/07/20 07:35:18;;;;;;;3.90;0.90;;;19.80;99.90;;;;;;7369336;19;20022;-65
2023/07/20 07:37:46;;;;;;;5.10;1.25;;;20.00;99.90;;;;;;7375011;19;20015;-65
2023/07/20 07:40:12;;;;;;;3.80;0.90;;;19.90;99.90;;;;;;7373646;19;20597;-65
2023/07/20 07:42:38;;;;;;;5.07;3.17;;;20.30;99.90;;;;;;7375704;19;20078;-66
2023/07/20 07:45:06;;;;;;;16.58;14.15;;;20.80;99.90;;;;;;7371395;19;20130;-61
2023/07/20 07:47:33;;;;;;;6.50;2.10;;;21.30;99.90;;;;;;7368258;19;20140;-60
2023/07/20 07:50:02;;;;;;;3.92;0.90;;;21.80;99.90;;;;;;7373740;19;20074;-59
2023/07/20 07:52:28;;;;;;;3.97;2.47;;;22.00;99.90;;;;;;7371072;19;20011;-59
2023/07/20 07:54:54;;;;;;;10.50;8.48;;;22.20;99.90;;;;;;7370308;19;20029;-63
2023/07/20 07:57:20;;;;;;;4.07;0.80;;;22.80;99.90;;;;;;7368166;19;20564;-63
2023/07/20 07:59:47;;;;;;;7.43;5.72;;;23.00;99.90;;;;;;7368440;19;20062;-60
2023/07/20 08:02:13;;;;;;;3.72;2.15;;;23.30;99.90;;;;;;7374174;19;20373;-60
2023/07/20 08:04:39;;;;;;;2.83;1.02;;;23.30;99.90;;;;;;7368861;19;20373;-60
2023/07/20 08:07:06;;;;;;;6.05;3.70;;;23.00;99.80;;;;;;7373174;19;20102;-60
2023/07/20 08:09:32;;;;;;;3.55;0.90;;;23.10;99.40;;;;;;7367880;19;20026;-60
2023/07/20 08:11:59;;;;;;;3.25;0.60;;;23.20;99.30;;;;;;7370822;19;20018;-65
2023/07/20 08:14:25;;;;;;;3.03;0.85;;;23.10;98.40;;;;;;7373010;19;20018;-63
2023/07/20 08:16:53;;;;;;;1.77;0.73;;;23.10;95.10;;;;;;7375478;19;20010;-60
2023/07/20 08:19:20;;;;;;;2.83;0.63;;;23.20;96.80;;;;;;7369423;19;20402;-63
2023/07/20 08:21:47;;;;;;;2.75;0.85;;;23.60;96.50;;;;;;7369607;19;20385;-63
2023/07/20 08:24:13;;;;;;;3.15;0.80;;;23.60;95.70;;;;;;7372726;19;20015;-63
2023/07/20 08:26:39;;;;;;;4.10;2.05;;;23.30;94.40;;;;;;7369578;19;20026;-63
2023/07/20 08:29:06;;;;;;;3.10;0.85;;;23.00;95.60;;;;;;7370091;19;20561;-63
2023/07/20 08:31:32;;;;;;;4.97;3.35;;;22.50;94.60;;;;;;7366558;19;20029;-63
2023/07/20 08:33:58;;;;;;;8.40;6.15;;;21.80;95.30;;;;;;7371426;19;20019;-60
2023/07/20 08:36:27;;;;;;;1.70;1.02;;;21.50;95.70;;;;;;7370607;19;20605;-60
2023/07/20 08:38:54;;;;;;;2.45;0.90;;;21.80;96.20;;;;;;7372974;19;20498;-61
2023/07/20 08:41:20;;;;;;;4.63;0.90;;;22.50;96.50;;;;;;7367764;19;20022;-61
2023/07/20 08:43:48;;;;;;;5.97;1.88;;;22.70;95.70;;;;;;7366137;19;20025;-62
2023/07/20 08:46:16;;;;;;;1.77;0.60;;;23.30;94.30;;;;;;7370195;19;20521;-63
2023/07/20 08:48:43;;;;;;;2.83;0.93;;;23.90;94.70;;;;;;7372869;19;20050;-62
2023/07/20 08:51:10;;;;;;;2.05;1.13;;;23.70;93.20;;;;;;7361980;19;20545;-62
2023/07/20 08:53:37;;;;;;;2.35;1.60;;;23.40;91.90;;;;;;7372356;19;20022;-61
2023/07/20 08:56:05;;;;;;;3.45;1.05;;;23.10;92.40;;;;;;7373546;19;20018;-63
2023/07/20 08:58:31;;;;;;;11.55;8.32;;;22.80;92.30;;;;;;7368767;19;20021;-63
2023/07/20 09:01:00;;;;;;;4.65;0.98;;;23.10;92.50;;;;;;7362256;19;20023;-63
2023/07/20 09:03:27;;;;;;;8.68;7.57;;;23.40;92.50;;;;;;7368731;19;20627;-61
2023/07/20 09:05:54;;;;;;;2.42;0.85;;;23.90;91.00;;;;;;7366862;19;20472;-61
2023/07/20 09:08:20;;;;;;;2.22;1.00;;;24.00;90.10;;;;;;7368426;19;20789;-61
2023/07/20 09:10:46;;;;;;;2.63;0.88;;;24.40;89.50;;;;;;7375040;19;20037;-62
2023/07/20 09:13:16;;;;;;;2.30;0.75;;;24.60;82.40;;;;;;7374433;19;20479;-63
2023/07/20 09:15:53;;;;;;;2.85;1.52;;;24.60;75.60;;;;;;7373287;19;20556;-63
2023/07/20 09:18:29;;;;;;;1.30;0.60;;;25.10;72.10;;;;;;7374961;19;20018;-61
2023/07/20 09:21:03;;;;;;;9.55;4.57;;;25.10;71.40;;;;;;7374036;19;20042;-62
2023/07/20 09:23:34;;;;;;;3.65;0.70;;;25.40;74.60;;;;;;7375206;19;20049;-61
2023/07/20 09:26:09;;;;;;;24.10;21.73;;;25.20;70.70;;;;;;7370414;19;20018;-62
2023/07/20 09:28:43;;;;;;;4.63;3.65;;;25.40;69.60;;;;;;7371690;19;20764;-62
2023/07/20 09:31:18;;;;;;;1.73;0.90;;;25.20;66.30;;;;;;7376746;19;20029;-63
2023/07/20 09:33:45;;;;;;;1.50;0.60;;;25.20;68.80;;;;;;7380397;19;20470;-61
2023/07/20 09:36:11;;;;;;;4.15;2.42;;;25.90;67.00;;;;;;7365722;19;20573;-62
2023/07/20 09:38:39;;;;;;;2.60;1.38;;;25.90;62.30;;;;;;7371156;19;20019;-61
2023/07/20 09:41:06;;;;;;;3.25;1.27;;;26.10;64.00;;;;;;7373513;19;20010;-60
2023/07/20 09:43:34;;;;;;;3.53;2.28;;;26.10;64.70;;;;;;7376377;19;20526;-58
2023/07/20 09:46:01;;;;;;;3.65;0.98;;;26.20;62.90;;;;;;7367557;19;20030;-62
2023/07/20 09:48:28;;;;;;;3.40;1.17;;;26.30;64.50;;;;;;7370415;19;20042;-62
2023/07/20 09:50:55;;;;;;;3.30;3.00;;;26.80;65.60;;;;;;7371736;19;20195;-62
2023/07/20 09:53:25;;;;;;;3.25;0.75;;;27.20;64.20;;;;;;7373827;19;20023;-62
2023/07/20 09:55:53;;;;;;;1.92;0.98;;;27.00;64.30;;;;;;7372106;19;20414;-62
2023/07/20 09:58:20;;;;;;;4.55;1.90;;;27.00;64.30;;;;;;7376716;19;20549;-63
2023/07/20 10:00:50;;;;;;;4.65;3.10;;;26.40;62.90;;;;;;7373252;19;20028;-63
2023/07/20 10:03:20;;;;;;;2.53;0.60;;;26.10;62.80;;;;;;7370609;19;20340;-63
2023/07/20 10:05:59;;;;;;;4.25;3.05;;;25.20;61.60;;;;;;7367240;19;20036;-62
2023/07/20 10:08:28;;;;;;;3.40;0.73;;;24.50;61.90;;;;;;7368859;19;20030;-62
2023/07/20 10:11:01;;;;;;;2.70;1.52;;;24.20;64.40;;;;;;7371359;19;20384;-63
2023/07/20 10:13:32;;;;;;;2.75;0.90;;;23.90;64.30;;;;;;7372683;19;20433;-62
2023/07/20 10:16:10;;;;;;;2.47;0.90;;;23.80;65.90;;;;;;7370033;19;20029;-62
2023/07/20 10:18:49;;;;;;;2.78;0.93;;;23.90;68.00;;;;;;7370208;19;20018;-62
2023/07/20 10:21:19;;;;;;;3.03;1.60;;;23.90;68.80;;;;;;7365926;19;20485;-63
2023/07/20 10:23:46;;;;;;;3.88;0.80;;;23.80;66.90;;;;;;7366999;19;20046;-62
2023/07/20 10:26:13;;;;;;;1.88;1.20;;;23.40;64.90;;;;;;7370989;19;20576;-62
2023/07/20 10:28:40;;;;;;;2.53;1.00;;;23.30;66.60;;;;;;7375306;19;20030;-62
2023/07/20 10:31:12;;;;;;;3.53;0.88;;;23.80;66.90;;;;;;7371836;19;20026;-62
2023/07/20 10:33:40;;;;;;;1.48;0.70;;;23.80;67.50;;;;;;7368675;19;20014;-63
2023/07/20 10:36:06;;;;;;;5.35;1.10;;;23.80;65.00;;;;;;7368745;19;20631;-63
2023/07/20 10:38:52;;;;;;;2.17;1.20;;;23.80;65.60;;;;;;7374121;19;20043;-62
2023/07/20 10:41:20;;;;;;;2.22;1.05;;;23.50;65.40;;;;;;7373438;19;20018;-63
2023/07/20 10:43:47;;;;;;;1.92;0.85;;;23.60;63.30;;;;;;7372160;19;22084;-64
2023/07/20 10:46:14;;;;;;;3.25;0.90;;;23.40;64.60;;;;;;7368728;19;20457;-66
2023/07/20 10:49:02;;;;;;;6.20;1.23;;;23.60;65.10;;;;;;7370772;19;20090;-62
2023/07/20 10:51:29;;;;;;;1.98;0.90;;;24.20;66.10;;;;;;7372986;19;20018;-64
2023/07/20 10:53:58;;;;;;;2.95;1.00;;;24.80;65.70;;;;;;7371657;19;20078;-63
2023/07/20 10:56:32;;;;;;;3.33;1.63;;;25.10;71.10;;;;;;7369459;19;20018;-64
2023/07/20 10:58:59;;;;;;;2.95;1.10;;;25.20;73.10;;;;;;7371046;19;20592;-63
2023/07/20 11:01:33;;;;;;;4.63;1.13;;;25.00;74.60;;;;;;7370346;19;20078;-63
2023/07/20 11:04:00;;;;;;;2.47;1.13;;;25.10;76.80;;;;;;7367450;19;20015;-63
2023/07/20 11:06:26;;;;;;;2.35;1.20;;;25.50;76.60;;;;;;7367844;19;20676;-63
2023/07/20 11:09:15;;;;;;;3.33;0.90;;;25.80;73.40;;;;;;7370727;19;20509;-63
2023/07/20 11:11:42;;;;;;;2.90;0.85;;;24.90;71.60;;;;;;7367850;19;20022;-63
2023/07/20 11:14:11;;;;;;;1.73;1.00;;;24.70;74.80;;;;;;7367677;19;20026;-63
2023/07/20 11:16:41;;;;;;;1.75;0.90;;;24.50;76.60;;;;;;7369100;19;20062;-63
2023/07/20 11:19:26;;;;;;;2.05;1.00;;;24.30;77.20;;;;;;7368777;19;20030;-63
2023/07/20 11:21:55;;;;;;;3.60;1.13;;;23.80;75.00;;;;;;7367542;19;20588;-62
2023/07/20 11:24:22;;;;;;;3.40;0.90;;;23.60;75.90;;;;;;7373779;19;20375;-63
2023/07/20 11:26:50;;;;;;;3.70;0.90;;;24.10;75.90;;;;;;7366279;19;20037;-63
2023/07/20 11:29:18;;;;;;;2.45;0.77;;;24.20;76.20;;;;;;7369320;19;20070;-63
2023/07/20 11:31:46;;;;;;;4.13;1.13;;;23.80;76.90;;;;;;7369869;19;20441;-63
2023/07/20 11:34:14;;;;;;;4.15;1.20;;;23.50;76.00;;;;;;7372281;19;20433;-63
2023/07/20 11:36:43;;;;;;;5.38;0.98;;;23.20;76.90;;;;;;7368795;19;20516;-63
2023/07/20 11:39:21;;;;;;;1.67;0.90;;;23.70;77.40;;;;;;7372298;19;20022;-63
2023/07/20 11:41:49;;;;;;;4.22;1.10;;;24.40;76.40;;;;;;7368860;19;20576;-63
2023/07/20 11:44:20;;;;;;;2.15;0.75;;;24.70;76.10;;;;;;7372439;19;20041;-63
2023/07/20 11:46:47;;;;;;;2.38;0.68;;;25.00;74.10;;;;;;7368496;19;20903;-63
2023/07/20 11:49:14;;;;;;;6.38;3.95;;;24.90;71.70;;;;;;7373599;19;20018;-64
2023/07/20 11:51:40;;;;;;;23.42;20.95;;;24.50;73.30;;;;;;7373852;19;20662;-62
2023/07/20 11:54:09;;;;;;;9.75;5.30;;;24.00;74.00;;;;;;7370456;19;20019;-62
2023/07/20 11:56:35;;;;;;;6.25;3.75;;;24.50;76.30;;;;;;7367706;19;20353;-63
2023/07/20 11:59:02;;;;;;;2.08;1.25;;;24.80;71.20;;;;;;7372871;19;20416;-62
2023/07/20 12:01:31;;;;;;;3.90;1.50;;;25.50;72.90;;;;;;7362009;19;20345;-63
2023/07/20 12:04:04;;;;;;;4.57;2.20;;;25.40;71.70;;;;;;7368912;19;20022;-62
2023/07/20 12:06:32;;;;;;;3.30;1.40;;;25.10;71.50;;;;;;7363481;19;20072;-62
2023/07/20 12:09:00;;;;;;;6.88;5.13;;;25.40;72.60;;;;;;7364933;19;20018;-62
2023/07/20 12:11:39;;;;;;;3.25;1.10;;;26.10;71.30;;;;;;7370628;19;20026;-62
2023/07/20 12:14:09;;;;;;;2.70;1.45;;;25.90;67.90;;;;;;7367678;19;20014;-63
2023/07/20 12:16:38;;;;;;;3.57;1.30;;;25.10;68.70;;;;;;7366163;19;20366;-63
2023/07/20 12:19:09;;;;;;;2.95;1.80;;;24.90;72.60;;;;;;7372066;19;20287;-63
2023/07/20 12:21:37;;;;;;;2.97;1.05;;;24.50;70.50;;;;;;7367928;19;20672;-63
2023/07/20 12:24:04;;;;;;;2.45;1.40;;;24.40;70.60;;;;;;7366138;19;20060;-62
2023/07/20 12:26:32;;;;;;;4.47;1.75;;;24.20;70.50;;;;;;7366557;19;20038;-62
2023/07/20 12:29:00;;;;;;;6.97;5.18;;;23.70;71.30;;;;;;7368274;19;20470;-63
2023/07/20 12:31:29;;;;;;;14.27;11.98;;;23.60;74.20;;;;;;7369506;19;20018;-63
2023/07/20 12:33:57;;;;;;;20.98;18.90;;;23.60;75.30;;;;;;7364899;19;20014;-64
2023/07/20 12:36:24;;;;;;;2.97;1.83;;;23.20;74.90;;;;;;7367951;19;20018;-62
2023/07/20 12:38:51;;;;;;;4.18;2.63;;;22.90;75.30;;;;;;7367572;19;20473;-62
2023/07/20 12:41:17;;;;;;;3.33;1.35;;;23.10;74.90;;;;;;7369073;19;20014;-63
2023/07/20 12:43:45;;;;;;;3.85;2.10;;;23.00;74.80;;;;;;7370024;19;20017;-63
2023/07/20 12:46:13;;;;;;;3.00;1.10;;;23.10;74.30;;;;;;7363969;19;20022;-63
2023/07/20 12:48:41;;;;;;;2.28;1.08;;;23.40;73.90;;;;;;7369718;19;20018;-63
2023/07/20 12:51:10;;;;;;;1.23;0.60;;;23.50;73.70;;;;;;7368626;19;20018;-63